createdAt,value
2023-05-20T00:07:40.204Z,2541.55103
2023-05-20T00:22:42.366Z,3025.56616
2023-05-20T00:37:44.411Z,2497.29272
2023-05-20T00:52:46.501Z,2485.99268
2023-05-20T01:07:48.654Z,5516.26709
2023-05-20T01:22:50.770Z,7043.646
2023-05-20T01:37:52.844Z,6489.00586
2023-05-20T01:52:54.976Z,5360.89258
2023-05-20T02:07:57.052Z,2010.45251
2023-05-20T02:22:59.101Z,1452.98743
2023-05-20T02:38:01.219Z,1188.37988
2023-05-20T02:53:03.327Z,906.82233
2023-05-20T03:08:05.439Z,395.49884
2023-05-20T03:23:07.558Z,124.29964
2023-05-20T03:38:09.641Z,38.60822
2023-05-20T03:53:11.662Z,6.59165
2023-05-20T04:08:13.885Z,0.94166
2023-05-20T04:23:15.953Z,0
2023-05-20T04:38:18.087Z,0
2023-05-20T04:53:20.124Z,0
2023-05-20T05:08:22.214Z,0
2023-05-20T05:23:24.291Z,0
2023-05-20T05:38:26.343Z,0
2023-05-20T05:53:28.495Z,0
2023-05-20T06:08:30.556Z,0
2023-05-20T06:23:32.625Z,0
2023-05-20T06:38:34.784Z,0
2023-05-20T06:53:37.442Z,0
2023-05-20T07:08:39.524Z,0
2023-05-20T07:23:41.751Z,0
2023-05-20T07:38:53.226Z,0
2023-05-20T07:54:04.514Z,0
2023-05-20T08:09:06.604Z,0
2023-05-20T08:24:08.767Z,0
2023-05-20T08:39:10.810Z,0
2023-05-20T08:54:12.890Z,0
2023-05-20T09:09:14.896Z,0
2023-05-20T09:24:17.013Z,0
2023-05-20T09:39:19.134Z,0
2023-05-20T09:54:21.277Z,0
2023-05-20T10:09:23.327Z,0
2023-05-20T10:24:25.423Z,0
2023-05-20T10:39:27.521Z,0
2023-05-20T10:54:29.596Z,0
2023-05-20T11:09:31.707Z,0
2023-05-20T11:24:33.779Z,0.94166
2023-05-20T11:39:35.904Z,3.76666
2023-05-20T11:54:37.966Z,69.68313
2023-05-20T12:09:40.087Z,112.99967
2023-05-20T12:24:42.158Z,180.79947
2023-05-20T12:39:44.220Z,253.3076
2023-05-20T12:54:46.290Z,445.40704
2023-05-20T13:09:48.374Z,765.57275
2023-05-20T13:24:50.452Z,1929.46936
2023-05-20T13:39:52.506Z,2610.29248
2023-05-20T13:54:54.606Z,2675.26709
2023-05-20T14:09:56.725Z,3474.73975
2023-05-20T14:24:58.815Z,4311.87891
2023-05-20T14:40:00.990Z,3377.74854
2023-05-20T14:55:03.036Z,4511.51172
2023-05-20T15:10:05.091Z,4408.87061
2023-05-20T15:25:07.152Z,6032.29932
2023-05-20T15:40:09.252Z,7884.55225
2023-05-20T15:55:11.285Z,8664.25
2023-05-20T16:10:13.346Z,10380.90332
2023-05-20T16:25:15.558Z,9726.44629
2023-05-20T16:40:17.759Z,5323.22607
2023-05-20T16:55:19.850Z,4996.46875
2023-05-20T17:10:21.904Z,11315.97559
2023-05-20T17:25:23.932Z,11359.29199
2023-05-20T17:40:26.280Z,11742.54883
2023-05-20T17:55:28.472Z,13202.12793
2023-05-20T18:10:30.469Z,4568.95312
2023-05-20T18:25:32.580Z,12382.88086
2023-05-20T18:40:35.017Z,12655.02148
2023-05-20T18:55:37.314Z,12590.98828
2023-05-20T19:10:39.470Z,11662.50781
2023-05-20T19:25:41.566Z,12194.54785
2023-05-20T19:40:43.589Z,12442.20508
2023-05-20T19:55:45.698Z,3539.7146
2023-05-20T20:10:47.735Z,2714.81714
2023-05-20T20:25:49.789Z,2537.78418
2023-05-20T20:40:51.922Z,7213.14551
2023-05-20T20:55:54.089Z,10861.15137
2023-05-20T21:10:56.215Z,12450.68066
2023-05-20T21:25:58.309Z,12058.94824
2023-05-20T21:41:00.413Z,11624.84082
2023-05-20T21:56:02.520Z,7149.1123
2023-05-20T22:11:04.562Z,3278.87378
2023-05-20T22:26:06.666Z,2993.54956
2023-05-20T22:41:08.762Z,3199.77393
2023-05-20T22:56:10.973Z,3011.44116
2023-05-20T23:11:13.041Z,2242.10181
2023-05-20T23:26:15.094Z,1743.0199
2023-05-20T23:41:17.203Z,1400.25427
2023-05-20T23:56:19.238Z,2095.20215
